Wetterdaten: Woche 22.08.05 - 28.08.05 (KW34)
Datum Zeit Temperatur Luftfeuchte Luftdruck Niederschlag Windrichtung Wind
22.08.2005 00:00 15,4 C 100 % 1012 hPa 0,0 l/m N 13,2 km/h (3 Bft)
22.08.2005 01:00 15,4 C 100 % 1012 hPa 1,0 l/m N 10,9 km/h (2 Bft)
22.08.2005 02:00 15,3 C 100 % 1011 hPa 0,0 l/m N 10,8 km/h (2 Bft)
22.08.2005 03:00 15,5 C 100 % 1011 hPa 0,0 l/m N 11,8 km/h (2 Bft)
22.08.2005 04:00 15,6 C 100 % 1011 hPa 0,0 l/m N 13,8 km/h (3 Bft)
22.08.2005 05:00 15,6 C 100 % 1011 hPa 0,0 l/m N 14,2 km/h (3 Bft)
22.08.2005 06:00 15,4 C 100 % 1011 hPa 1,0 l/m N-NW 11,9 km/h (2 Bft)
22.08.2005 07:00 15,2 C 100 % 1011 hPa 1,0 l/m N-NW 13,9 km/h (3 Bft)
22.08.2005 08:00 15,2 C 100 % 1011 hPa 1,0 l/m N 14,9 km/h (3 Bft)
22.08.2005 09:00 15,6 C 100 % 1011 hPa 0,0 l/m N 15,6 km/h (3 Bft)
22.08.2005 10:00 16,2 C 99 % 1011 hPa 0,0 l/m N-NW 14,8 km/h (3 Bft)
22.08.2005 11:00 16,8 C 95 % 1011 hPa 0,0 l/m N-NW 16,9 km/h (3 Bft)
22.08.2005 12:00 17,2 C 91 % 1011 hPa 0,0 l/m N-NW 18,2 km/h (3 Bft)
22.08.2005 13:00 16,5 C 94 % 1011 hPa 3,0 l/m N-NW 15,9 km/h (3 Bft)
22.08.2005 14:00 15,9 C 98 % 1011 hPa 0,0 l/m N 16,6 km/h (3 Bft)
22.08.2005 15:00 16,0 C 99 % 1011 hPa 0,0 l/m N-NW 15,0 km/h (3 Bft)
22.08.2005 16:00 16,0 C 97 % 1011 hPa 1,0 l/m NW 18,7 km/h (3 Bft)
22.08.2005 17:00 15,9 C 99 % 1011 hPa 0,0 l/m W-NW 14,2 km/h (3 Bft)
22.08.2005 18:00 16,2 C 97 % 1011 hPa 0,0 l/m NW 14,6 km/h (3 Bft)
22.08.2005 19:00 16,2 C 94 % 1011 hPa 0,0 l/m W 16,8 km/h (3 Bft)
22.08.2005 20:00 16,0 C 95 % 1012 hPa 1,0 l/m W 14,9 km/h (3 Bft)
22.08.2005 21:00 16,0 C 96 % 1012 hPa 0,0 l/m NW 15,9 km/h (3 Bft)
22.08.2005 22:00 16,0 C 94 % 1012 hPa 0,0 l/m W-NW 15,3 km/h (3 Bft)
22.08.2005 23:00 15,9 C 94 % 1012 hPa 0,0 l/m W 17,0 km/h (3 Bft)
23.08.2005 00:00 15,5 C 95 % 1012 hPa 0,0 l/m W 16,4 km/h (3 Bft)
23.08.2005 01:00 15,2 C 96 % 1012 hPa 0,0 l/m W 14,0 km/h (3 Bft)
23.08.2005 02:00 15,0 C 96 % 1012 hPa 0,0 l/m W 16,8 km/h (3 Bft)
23.08.2005 03:00 14,7 C 95 % 1012 hPa 0,0 l/m W 18,2 km/h (3 Bft)
23.08.2005 04:00 14,6 C 95 % 1012 hPa 0,0 l/m W 15,4 km/h (3 Bft)
23.08.2005 05:00 14,4 C 96 % 1012 hPa 1,0 l/m W 14,7 km/h (3 Bft)
23.08.2005 06:00 14,1 C 97 % 1013 hPa 4,0 l/m W 11,1 km/h (2 Bft)
23.08.2005 07:00 13,9 C 99 % 1013 hPa 1,0 l/m W-SW 8,4 km/h (2 Bft)
23.08.2005 08:00 13,8 C 100 % 1014 hPa 2,0 l/m W-SW 9,5 km/h (2 Bft)
23.08.2005 09:00 13,9 C 100 % 1014 hPa 1,0 l/m W-SW 11,1 km/h (2 Bft)
23.08.2005 10:00 13,8 C 100 % 1015 hPa 3,0 l/m W-SW 10,1 km/h (2 Bft)
23.08.2005 11:00 13,9 C 100 % 1015 hPa 1,0 l/m W-SW 7,1 km/h (2 Bft)
23.08.2005 12:00 14,1 C 100 % 1016 hPa 0,0 l/m S-SW 6,1 km/h (2 Bft)
23.08.2005 13:00 14,6 C 100 % 1016 hPa 0,0 l/m S 9,9 km/h (2 Bft)
23.08.2005 14:00 15,4 C 100 % 1016 hPa 0,0 l/m S 11,2 km/h (2 Bft)
23.08.2005 15:00 17,0 C 95 % 1016 hPa 0,0 l/m S 17,8 km/h (3 Bft)
23.08.2005 16:00 16,9 C 88 % 1015 hPa 0,0 l/m S 19,9 km/h (4 Bft)
23.08.2005 17:00 16,8 C 89 % 1016 hPa 0,0 l/m S 17,1 km/h (3 Bft)
23.08.2005 18:00 16,4 C 87 % 1016 hPa 0,0 l/m S 15,0 km/h (3 Bft)
23.08.2005 19:00 16,0 C 89 % 1016 hPa 0,0 l/m S 12,7 km/h (3 Bft)
23.08.2005 20:00 15,3 C 87 % 1016 hPa 0,0 l/m S 15,3 km/h (3 Bft)
23.08.2005 21:00 14,9 C 91 % 1017 hPa 2,0 l/m S 5,8 km/h (2 Bft)
23.08.2005 22:00 14,3 C 96 % 1018 hPa 0,0 l/m S 4,4 km/h (1 Bft)
23.08.2005 23:00 13,9 C 97 % 1018 hPa 0,0 l/m N 0,0 km/h (0 Bft)
24.08.2005 00:00 13,6 C 97 % 1018 hPa 0,0 l/m N 0,0 km/h (0 Bft)
24.08.2005 01:00 13,4 C 98 % 1018 hPa 0,0 l/m N 0,0 km/h (0 Bft)
24.08.2005 02:00 13,1 C 99 % 1017 hPa 0,0 l/m S 4,1 km/h (1 Bft)
24.08.2005 03:00 12,7 C 100 % 1017 hPa 0,0 l/m S 5,9 km/h (2 Bft)
24.08.2005 04:00 12,6 C 100 % 1017 hPa 0,0 l/m SO 0,9 km/h (0 Bft)
24.08.2005 05:00 12,4 C 100 % 1017 hPa 0,0 l/m N 0,0 km/h (0 Bft)
24.08.2005 06:00 12,5 C 100 % 1017 hPa 0,0 l/m N 0,0 km/h (0 Bft)
24.08.2005 07:00 12,7 C 100 % 1017 hPa 0,0 l/m S 2,0 km/h (1 Bft)
24.08.2005 08:00 13,5 C 100 % 1017 hPa 0,0 l/m S-SO 7,5 km/h (2 Bft)
24.08.2005 09:00 15,3 C 99 % 1017 hPa 0,0 l/m S 8,1 km/h (2 Bft)
24.08.2005 10:00 16,2 C 91 % 1017 hPa 0,0 l/m SO 8,7 km/h (2 Bft)
24.08.2005 11:00 18,0 C 79 % 1017 hPa 0,0 l/m S 11,7 km/h (2 Bft)
24.08.2005 12:00 19,5 C 68 % 1016 hPa 0,0 l/m W 11,3 km/h (2 Bft)
24.08.2005 13:00 19,6 C 69 % 1016 hPa 0,0 l/m W-SW 4,9 km/h (1 Bft)
24.08.2005 14:00 20,7 C 62 % 1015 hPa 0,0 l/m W-SW 5,4 km/h (1 Bft)
24.08.2005 15:00 21,0 C 60 % 1015 hPa 0,0 l/m N-NW 3,8 km/h (1 Bft)
24.08.2005 16:00 21,0 C 59 % 1015 hPa 0,0 l/m W 2,3 km/h (1 Bft)
24.08.2005 17:00 22,3 C 53 % 1014 hPa 0,0 l/m S 6,1 km/h (2 Bft)
24.08.2005 18:00 22,0 C 56 % 1014 hPa 0,0 l/m S 10,2 km/h (2 Bft)
24.08.2005 19:00 19,9 C 70 % 1014 hPa 0,0 l/m S-SW 3,3 km/h (1 Bft)
24.08.2005 20:00 18,3 C 76 % 1014 hPa 0,0 l/m N 0,0 km/h (0 Bft)
24.08.2005 21:00 16,5 C 83 % 1014 hPa 0,0 l/m N 0,0 km/h (0 Bft)
24.08.2005 22:00 15,2 C 88 % 1014 hPa 0,0 l/m N 0,0 km/h (0 Bft)
24.08.2005 23:00 14,6 C 92 % 1014 hPa 0,0 l/m N 0,0 km/h (0 Bft)
25.08.2005 00:00 14,0 C 93 % 1014 hPa 0,0 l/m N 0,0 km/h (0 Bft)
25.08.2005 01:00 13,7 C 96 % 1014 hPa 0,0 l/m N 0,0 km/h (0 Bft)
25.08.2005 02:00 13,9 C 97 % 1013 hPa 0,0 l/m N 0,0 km/h (0 Bft)
25.08.2005 03:00 13,9 C 98 % 1013 hPa 0,0 l/m N 0,0 km/h (0 Bft)
25.08.2005 04:00 13,8 C 99 % 1013 hPa 0,0 l/m N 0,0 km/h (0 Bft)
25.08.2005 05:00 13,9 C 99 % 1013 hPa 0,0 l/m N 0,0 km/h (0 Bft)
25.08.2005 06:00 13,8 C 100 % 1012 hPa 0,0 l/m S 0,3 km/h (0 Bft)
25.08.2005 07:00 14,0 C 100 % 1013 hPa 0,0 l/m S 6,4 km/h (2 Bft)
25.08.2005 08:00 15,1 C 98 % 1012 hPa 0,0 l/m S 14,4 km/h (3 Bft)
25.08.2005 09:00 16,0 C 92 % 1012 hPa 0,0 l/m S 11,6 km/h (2 Bft)
25.08.2005 10:00 17,2 C 81 % 1012 hPa 0,0 l/m S 13,8 km/h (3 Bft)
25.08.2005 11:00 18,1 C 74 % 1011 hPa 0,0 l/m S 15,2 km/h (3 Bft)
25.08.2005 12:00 19,2 C 71 % 1011 hPa 0,0 l/m S 12,6 km/h (3 Bft)
25.08.2005 13:00 19,4 C 63 % 1011 hPa 0,0 l/m SW 12,2 km/h (2 Bft)
25.08.2005 14:00 19,5 C 64 % 1011 hPa 0,0 l/m SW 12,9 km/h (3 Bft)
25.08.2005 15:00 19,4 C 64 % 1011 hPa 0,0 l/m W-SW 11,0 km/h (2 Bft)
25.08.2005 16:00 18,2 C 75 % 1012 hPa 0,0 l/m W-SW 9,9 km/h (2 Bft)
25.08.2005 17:00 16,8 C 72 % 1012 hPa 1,0 l/m S-SW 16,7 km/h (3 Bft)
25.08.2005 18:00 15,9 C 82 % 1012 hPa 0,0 l/m S-SW 17,0 km/h (3 Bft)
25.08.2005 19:00 16,0 C 86 % 1012 hPa 0,0 l/m SW 10,0 km/h (2 Bft)
25.08.2005 20:00 15,8 C 88 % 1012 hPa 0,0 l/m W-SW 10,5 km/h (2 Bft)
25.08.2005 21:00 16,2 C 77 % 1013 hPa 0,0 l/m W-SW 16,5 km/h (3 Bft)
25.08.2005 22:00 16,2 C 80 % 1014 hPa 0,0 l/m W-SW 18,2 km/h (3 Bft)
25.08.2005 23:00 16,2 C 82 % 1014 hPa 0,0 l/m SW 15,6 km/h (3 Bft)
26.08.2005 00:00 15,9 C 85 % 1015 hPa 0,0 l/m SW 11,8 km/h (2 Bft)
26.08.2005 01:00 15,8 C 87 % 1015 hPa 0,0 l/m W-SW 12,1 km/h (2 Bft)
26.08.2005 02:00 15,4 C 89 % 1016 hPa 0,0 l/m W 8,9 km/h (2 Bft)
26.08.2005 03:00 15,0 C 79 % 1017 hPa 0,0 l/m W-SW 10,6 km/h (2 Bft)
26.08.2005 04:00 14,5 C 79 % 1017 hPa 0,0 l/m W-SW 5,4 km/h (1 Bft)
26.08.2005 05:00 14,1 C 82 % 1017 hPa 0,0 l/m N 0,0 km/h (0 Bft)
26.08.2005 06:00 13,2 C 86 % 1018 hPa 0,0 l/m N 0,0 km/h (0 Bft)
26.08.2005 07:00 12,7 C 91 % 1018 hPa 0,0 l/m N 0,1 km/h (0 Bft)
26.08.2005 08:00 14,1 C 93 % 1018 hPa 0,0 l/m O 3,6 km/h (1 Bft)
26.08.2005 09:00 15,4 C 84 % 1019 hPa 0,0 l/m W-SW 4,2 km/h (1 Bft)
26.08.2005 10:00 15,9 C 77 % 1019 hPa 0,0 l/m W 1,3 km/h (1 Bft)
26.08.2005 11:00 16,4 C 73 % 1019 hPa 0,0 l/m W 5,4 km/h (1 Bft)
26.08.2005 12:00 17,7 C 67 % 1019 hPa 0,0 l/m W 9,6 km/h (2 Bft)
26.08.2005 13:00 18,4 C 61 % 1019 hPa 0,0 l/m W 8,9 km/h (2 Bft)
26.08.2005 14:00 20,0 C 51 % 1019 hPa 0,0 l/m W 12,8 km/h (3 Bft)
26.08.2005 15:00 20,0 C 49 % 1019 hPa 0,0 l/m W 8,8 km/h (2 Bft)
26.08.2005 16:00 20,6 C 47 % 1019 hPa 0,0 l/m W 2,0 km/h (1 Bft)
26.08.2005 17:00 20,2 C 47 % 1019 hPa 0,0 l/m W 4,4 km/h (1 Bft)
26.08.2005 18:00 19,9 C 51 % 1019 hPa 0,0 l/m W-SW 0,8 km/h (0 Bft)
26.08.2005 19:00 18,4 C 63 % 1019 hPa 0,0 l/m N-NW 0,2 km/h (0 Bft)
26.08.2005 20:00 16,6 C 69 % 1020 hPa 0,0 l/m N 0,0 km/h (0 Bft)
26.08.2005 21:00 15,2 C 74 % 1020 hPa 0,0 l/m W-NW 0,5 km/h (0 Bft)
26.08.2005 22:00 14,1 C 78 % 1021 hPa 0,0 l/m NW 4,3 km/h (1 Bft)
26.08.2005 23:00 12,8 C 81 % 1021 hPa 0,0 l/m W-NW 1,8 km/h (1 Bft)
27.08.2005 00:00 12,2 C 82 % 1021 hPa 0,0 l/m W-NW 0,9 km/h (0 Bft)
27.08.2005 01:00 11,6 C 83 % 1021 hPa 0,0 l/m W-NW 3,6 km/h (1 Bft)
27.08.2005 02:00 11,2 C 84 % 1020 hPa 0,0 l/m W 0,8 km/h (0 Bft)
27.08.2005 03:00 10,8 C 85 % 1020 hPa 0,0 l/m NW 4,6 km/h (1 Bft)
27.08.2005 04:00 10,3 C 85 % 1020 hPa 0,0 l/m NW 5,1 km/h (1 Bft)
27.08.2005 05:00 9,8 C 87 % 1020 hPa 0,0 l/m W-NW 7,9 km/h (2 Bft)
27.08.2005 06:00 9,2 C 88 % 1020 hPa 0,0 l/m N 0,0 km/h (0 Bft)
27.08.2005 07:00 9,6 C 92 % 1020 hPa 0,0 l/m NW 6,9 km/h (2 Bft)
27.08.2005 08:00 11,5 C 87 % 1020 hPa 0,0 l/m NW 3,0 km/h (1 Bft)
27.08.2005 09:00 14,0 C 71 % 1020 hPa 0,0 l/m N 9,3 km/h (2 Bft)
27.08.2005 10:00 16,8 C 56 % 1020 hPa 0,0 l/m NO 13,9 km/h (3 Bft)
27.08.2005 11:00 18,4 C 51 % 1019 hPa 0,0 l/m NO 14,9 km/h (3 Bft)
27.08.2005 12:00 19,1 C 51 % 1019 hPa 0,0 l/m N-NO 13,1 km/h (3 Bft)
27.08.2005 13:00 20,2 C 51 % 1019 hPa 0,0 l/m N 13,1 km/h (3 Bft)
27.08.2005 14:00 21,1 C 49 % 1018 hPa 0,0 l/m N-NO 13,8 km/h (3 Bft)
27.08.2005 15:00 21,9 C 48 % 1018 hPa 0,0 l/m NO 13,4 km/h (3 Bft)
27.08.2005 16:00 21,4 C 50 % 1017 hPa 0,0 l/m O 13,3 km/h (3 Bft)
27.08.2005 17:00 21,0 C 53 % 1017 hPa 0,0 l/m O 11,9 km/h (2 Bft)
27.08.2005 18:00 20,6 C 56 % 1017 hPa 0,0 l/m NO 10,1 km/h (2 Bft)
27.08.2005 19:00 19,6 C 62 % 1017 hPa 0,0 l/m N-NO 8,4 km/h (2 Bft)
27.08.2005 20:00 18,4 C 67 % 1017 hPa 0,0 l/m N 3,6 km/h (1 Bft)
27.08.2005 21:00 17,4 C 70 % 1018 hPa 0,0 l/m N 3,5 km/h (1 Bft)
27.08.2005 22:00 16,6 C 73 % 1018 hPa 0,0 l/m NW 9,4 km/h (2 Bft)
27.08.2005 23:00 15,9 C 73 % 1018 hPa 0,0 l/m N-NW 9,9 km/h (2 Bft)
28.08.2005 00:00 15,2 C 74 % 1018 hPa 0,0 l/m N 4,6 km/h (1 Bft)
28.08.2005 01:00 14,7 C 76 % 1018 hPa 0,0 l/m N-NW 8,0 km/h (2 Bft)
28.08.2005 02:00 14,4 C 75 % 1018 hPa 0,0 l/m N 5,3 km/h (1 Bft)
28.08.2005 03:00 14,0 C 79 % 1018 hPa 0,0 l/m N-NW 6,5 km/h (2 Bft)
28.08.2005 04:00 13,6 C 81 % 1018 hPa 0,0 l/m NW 3,5 km/h (1 Bft)
28.08.2005 05:00 13,4 C 80 % 1019 hPa 0,0 l/m N-NW 5,7 km/h (1 Bft)
28.08.2005 06:00 13,2 C 80 % 1020 hPa 0,0 l/m NW 5,2 km/h (1 Bft)
28.08.2005 07:00 13,2 C 81 % 1020 hPa 0,0 l/m NW 1,1 km/h (0 Bft)
28.08.2005 08:00 13,4 C 80 % 1020 hPa 0,0 l/m N 2,2 km/h (1 Bft)
28.08.2005 09:00 15,1 C 70 % 1021 hPa 0,0 l/m N-NO 12,3 km/h (3 Bft)
28.08.2005 10:00 18,1 C 57 % 1022 hPa 0,0 l/m N 14,6 km/h (3 Bft)
28.08.2005 11:00 20,5 C 49 % 1022 hPa 0,0 l/m N-NO 14,7 km/h (3 Bft)
28.08.2005 12:00 21,6 C 45 % 1022 hPa 0,0 l/m O 13,8 km/h (3 Bft)
28.08.2005 13:00 21,9 C 45 % 1022 hPa 0,0 l/m N-NO 10,9 km/h (2 Bft)
28.08.2005 14:00 22,5 C 44 % 1022 hPa 0,0 l/m NO 12,3 km/h (3 Bft)
28.08.2005 15:00 23,4 C 41 % 1022 hPa 0,0 l/m N-NO 10,6 km/h (2 Bft)
28.08.2005 16:00 23,4 C 40 % 1022 hPa 0,0 l/m O 13,3 km/h (3 Bft)
28.08.2005 17:00 23,0 C 42 % 1022 hPa 0,0 l/m N-NO 11,3 km/h (2 Bft)
28.08.2005 18:00 22,3 C 43 % 1022 hPa 0,0 l/m O-NO 11,4 km/h (2 Bft)
28.08.2005 19:00 20,6 C 50 % 1023 hPa 0,0 l/m O-NO 4,1 km/h (1 Bft)
28.08.2005 20:00 18,0 C 62 % 1023 hPa 0,0 l/m NW 1,5 km/h (1 Bft)
28.08.2005 21:00 16,1 C 69 % 1024 hPa 0,0 l/m NW 2,2 km/h (1 Bft)
28.08.2005 22:00 14,9 C 74 % 1024 hPa 0,0 l/m N 0,0 km/h (0 Bft)
28.08.2005 23:00 14,2 C 78 % 1024 hPa 0,0 l/m NW 1,4 km/h (1 Bft)
Min-Datum _ 27.08.05 28.08.05 22.08.05 - - 22.08.05
_ Min-Zeit 06:50 15:43 08:15 - - 00:42
Minimum _ 8,9 C 38 % 1010 hPa - - 0,0 km/h (0 Bft)
Max-Datum _ 28.08.05 22.08.05 28.08.05 23.08.05 - 25.08.05
_ Max-Zeit 15:54 00:00 21:30 06:38 - 17:15
Maximum _ 23,9 C 100 % 1024 hPa 4,0 l/m - 38,3 km/h
S-SW (5 Bft)
Durchschnitt _ 16,2 C 81 % 1016 hPa #25,0 l/m W 8,6 km/h (2 Bft)

Durchschnitt Minimum Temp.15,8 C
Durchschnitt Maximum Temp.16,5 C